North Amherst, Massachusetts
Current Conditions -  °F | °C
As of 7:58 AM on Saturday 25 Oct 2014 (Local Time) from KCEF Reporting Station
Clear Clear  
Wind Chill: 37°   Ceiling: Unl
Heat Index: 37°   Visibility: 10mi
Dew Point: 36°   Wind: 0mph
Humidity: 97%   Direction: NA
Pressure: 29.81"   Gusts: NA
Location:  42.41°N, 72.53°W
Report Text: KCEF 251158Z AUTO 00000KT 10SM CLR 03/02 A2981 RMK AO2 SLP102 70001 T00270023 10045 20019 52007
Loading
Personal Weather Stations






























Interactive Weather Map
Tropical Storm Tracking
New forecast layout! Learn more

10-Day Weather Forecast

Advertisements
Track Severe Weather on mobile